Ana Sayfa
METAR-TAF:

METAR-TAF

Havaalanları :

Varna, Bulgaristan

Enlem: 43-12N, Boylam: 027-55E, yükseklik: 41 m

Güncel hava durumu gözlemi

Rapor saat 19:00 UTC de 23 dakika önce yapıldı.
Rüzgar kuzeybatıdan 5 kt
Sıcaklık 4°C
Nem 70%
Basınç 1018 hPa
Görüş mesafesi 10 km veya daha fazla
1500 m altında bulut yok ve kümülonimbus yok

METAR: LBWN 241900Z 32005KT CAVOK 04/M01 Q1018 NOSIG

Saat: 21:23 (19:23 UTC)

Tahmin

Rapor saat 17:00 UTC de 2 saat ve 23 dakika önce yapıldı.
Ayın 24'si saat 18 UTC'den ayın 25'si saat 18 UTC'ye kadar geçerli Tahmin
Rüzgar kuzeybatıdan 8 kt
Görüş mesafesi 10 km veya daha fazla
4500 ft yükseklikte parçalı bulutlu
Dönüşüyor
ayın 25'si saat 09 UTC'den ayın 25'si saat 11 UTC'ye kadar
Rüzgar güneybatıdan 12 kt

TAF: LBWN 241700Z 2418/2518 31008KT 9999 SCT045 BECMG 2509/2511 22012KT

4.000'den fazla havaalanı için hava durumu gözlemleri ve tahminleri (METAR ve TAF raporları).

Kullanılabilir istasyonlar harita üzerinde sarı ve kırmızı noktalarla gösterilir.

İstasyonun adını görmek için fareyi noktanın üzerinde gezdirin.

Sonrasında hava gözlem ve tahminlerini görmek için tıklayın.

Haritayı değiştirmek için: yaklaştırmak için siyah artı işaretli yeşil düğmeye ve uzaklaştırmak için de eksi işaretli düğmeye hızla tıklayın; bitişik haritalar için yeşil okları kullanın.


METAR-TAF: